Terminal Aerodrome Forecast
Issued by NWS Buffalo, NY

Home | Current Version | Previous Version | Text Only | Print | Product List | Glossary On
Versions: 1 2 3 4 5 6 7 8 9 10 11 12 13 14 15 16 17 18 19 20 21 22 23 24 25 26 27
000
FTUS41 KBUF 051343 AAA
TAFBUF
TAF AMD
KBUF 051343Z 0514/0612 05008KT P6SM BKN008
     FM051500 04010KT P6SM BKN025
     FM051600 04012KT P6SM BKN040
     FM052300 02008KT P6SM BKN040
     FM061000 35004KT P6SM BKN200=

USA.gov is the U.S. government's official web portal to all federal, state and local government web resources and services.